sensor_id;sensor_type;location;lat;lon;timestamp;temperature;humidity
6270;DHT22;3168;51.684;6.954;2023-04-25T00:02:19;6.50;1.00
6270;DHT22;3168;51.684;6.954;2023-04-25T00:04:45;6.50;1.00
6270;DHT22;3168;51.684;6.954;2023-04-25T00:07:11;6.50;1.00
6270;DHT22;3168;51.684;6.954;2023-04-25T00:09:36;6.50;1.00
6270;DHT22;3168;51.684;6.954;2023-04-25T00:12:03;6.50;1.00
6270;DHT22;3168;51.684;6.954;2023-04-25T00:14:29;6.50;1.00
6270;DHT22;3168;51.684;6.954;2023-04-25T00:16:54;6.50;1.00
6270;DHT22;3168;51.684;6.954;2023-04-25T00:19:20;6.50;1.00
6270;DHT22;3168;51.684;6.954;2023-04-25T00:21:46;6.50;1.00
6270;DHT22;3168;51.684;6.954;2023-04-25T00:24:12;6.40;1.00
6270;DHT22;3168;51.684;6.954;2023-04-25T00:26:38;6.40;1.00
6270;DHT22;3168;51.684;6.954;2023-04-25T00:29:03;6.40;1.00
6270;DHT22;3168;51.684;6.954;2023-04-25T00:31:30;6.40;1.00
6270;DHT22;3168;51.684;6.954;2023-04-25T00:33:56;6.40;1.00
6270;DHT22;3168;51.684;6.954;2023-04-25T00:36:21;6.40;1.00
6270;DHT22;3168;51.684;6.954;2023-04-25T00:38:47;6.40;1.00
6270;DHT22;3168;51.684;6.954;2023-04-25T00:41:13;6.40;1.00
6270;DHT22;3168;51.684;6.954;2023-04-25T00:43:39;6.50;1.00
6270;DHT22;3168;51.684;6.954;2023-04-25T00:46:06;6.40;1.00
6270;DHT22;3168;51.684;6.954;2023-04-25T00:48:32;6.50;1.00
6270;DHT22;3168;51.684;6.954;2023-04-25T00:50:58;6.50;1.00
6270;DHT22;3168;51.684;6.954;2023-04-25T00:53:24;6.50;1.00
6270;DHT22;3168;51.684;6.954;2023-04-25T00:55:50;6.50;1.00
6270;DHT22;3168;51.684;6.954;2023-04-25T00:58:17;6.50;1.00
6270;DHT22;3168;51.684;6.954;2023-04-25T01:00:44;6.50;1.00
6270;DHT22;3168;51.684;6.954;2023-04-25T01:03:09;6.50;1.00
6270;DHT22;3168;51.684;6.954;2023-04-25T01:05:35;6.50;1.00
6270;DHT22;3168;51.684;6.954;2023-04-25T01:08:00;6.60;1.00
6270;DHT22;3168;51.684;6.954;2023-04-25T01:10:27;6.60;1.00
6270;DHT22;3168;51.684;6.954;2023-04-25T01:12:53;6.60;1.00
6270;DHT22;3168;51.684;6.954;2023-04-25T01:15:19;6.70;1.00
6270;DHT22;3168;51.684;6.954;2023-04-25T01:17:44;6.60;1.00
6270;DHT22;3168;51.684;6.954;2023-04-25T01:20:11;6.60;1.00
6270;DHT22;3168;51.684;6.954;2023-04-25T01:22:37;6.70;1.00
6270;DHT22;3168;51.684;6.954;2023-04-25T01:25:04;6.70;1.00
6270;DHT22;3168;51.684;6.954;2023-04-25T01:27:30;6.70;1.00
6270;DHT22;3168;51.684;6.954;2023-04-25T01:29:55;6.70;1.00
6270;DHT22;3168;51.684;6.954;2023-04-25T01:32:22;6.70;1.00
6270;DHT22;3168;51.684;6.954;2023-04-25T01:34:47;6.60;1.00
6270;DHT22;3168;51.684;6.954;2023-04-25T01:37:13;6.60;1.00
6270;DHT22;3168;51.684;6.954;2023-04-25T01:39:38;6.70;1.00
6270;DHT22;3168;51.684;6.954;2023-04-25T01:42:05;6.60;1.00
6270;DHT22;3168;51.684;6.954;2023-04-25T01:44:31;6.60;1.00
6270;DHT22;3168;51.684;6.954;2023-04-25T01:46:57;6.60;1.00
6270;DHT22;3168;51.684;6.954;2023-04-25T01:49:23;6.60;1.00
6270;DHT22;3168;51.684;6.954;2023-04-25T01:51:48;6.60;1.00
6270;DHT22;3168;51.684;6.954;2023-04-25T01:54:14;6.60;1.00
6270;DHT22;3168;51.684;6.954;2023-04-25T01:56:40;6.70;1.00
6270;DHT22;3168;51.684;6.954;2023-04-25T01:59:06;6.60;1.00
6270;DHT22;3168;51.684;6.954;2023-04-25T02:01:32;6.60;1.00
6270;DHT22;3168;51.684;6.954;2023-04-25T02:03:57;6.60;1.00
6270;DHT22;3168;51.684;6.954;2023-04-25T02:06:23;6.60;1.00
6270;DHT22;3168;51.684;6.954;2023-04-25T02:08:49;6.70;1.00
6270;DHT22;3168;51.684;6.954;2023-04-25T02:11:15;6.60;1.00
6270;DHT22;3168;51.684;6.954;2023-04-25T02:13:41;6.60;1.00
6270;DHT22;3168;51.684;6.954;2023-04-25T02:16:07;6.60;1.00
6270;DHT22;3168;51.684;6.954;2023-04-25T02:18:33;6.60;1.00
6270;DHT22;3168;51.684;6.954;2023-04-25T02:20:59;6.60;1.00
6270;DHT22;3168;51.684;6.954;2023-04-25T02:23:25;6.60;1.00
6270;DHT22;3168;51.684;6.954;2023-04-25T02:25:51;6.60;1.00
6270;DHT22;3168;51.684;6.954;2023-04-25T02:28:16;6.60;1.00
6270;DHT22;3168;51.684;6.954;2023-04-25T02:30:43;6.60;1.00
6270;DHT22;3168;51.684;6.954;2023-04-25T02:33:09;6.50;1.00
6270;DHT22;3168;51.684;6.954;2023-04-25T02:35:34;6.50;1.00
6270;DHT22;3168;51.684;6.954;2023-04-25T02:38:00;6.50;1.00
6270;DHT22;3168;51.684;6.954;2023-04-25T02:40:26;6.60;1.00
6270;DHT22;3168;51.684;6.954;2023-04-25T02:42:52;6.60;1.00
6270;DHT22;3168;51.684;6.954;2023-04-25T02:45:18;6.60;1.00
6270;DHT22;3168;51.684;6.954;2023-04-25T02:47:43;6.50;1.00
6270;DHT22;3168;51.684;6.954;2023-04-25T02:50:09;6.50;1.00
6270;DHT22;3168;51.684;6.954;2023-04-25T02:52:35;6.50;1.00
6270;DHT22;3168;51.684;6.954;2023-04-25T02:55:01;6.50;1.00
6270;DHT22;3168;51.684;6.954;2023-04-25T02:57:27;6.50;1.00
6270;DHT22;3168;51.684;6.954;2023-04-25T02:59:53;6.40;1.00
6270;DHT22;3168;51.684;6.954;2023-04-25T03:02:18;6.50;1.00
6270;DHT22;3168;51.684;6.954;2023-04-25T03:04:44;6.50;1.00
6270;DHT22;3168;51.684;6.954;2023-04-25T03:07:10;6.50;1.00
6270;DHT22;3168;51.684;6.954;2023-04-25T03:09:37;6.40;1.00
6270;DHT22;3168;51.684;6.954;2023-04-25T03:12:03;6.40;1.00
6270;DHT22;3168;51.684;6.954;2023-04-25T03:14:29;6.50;1.00
6270;DHT22;3168;51.684;6.954;2023-04-25T03:16:55;6.40;1.00
6270;DHT22;3168;51.684;6.954;2023-04-25T03:19:21;6.10;1.00
6270;DHT22;3168;51.684;6.954;2023-04-25T03:21:46;5.90;1.00
6270;DHT22;3168;51.684;6.954;2023-04-25T03:24:12;5.80;1.00
6270;DHT22;3168;51.684;6.954;2023-04-25T03:26:38;5.70;1.00
6270;DHT22;3168;51.684;6.954;2023-04-25T03:29:04;5.70;1.00
6270;DHT22;3168;51.684;6.954;2023-04-25T03:31:30;5.60;1.00
6270;DHT22;3168;51.684;6.954;2023-04-25T03:33:56;5.40;1.00
6270;DHT22;3168;51.684;6.954;2023-04-25T03:36:23;5.40;1.00
6270;DHT22;3168;51.684;6.954;2023-04-25T03:38:49;5.40;1.00
6270;DHT22;3168;51.684;6.954;2023-04-25T03:41:15;5.20;1.00
6270;DHT22;3168;51.684;6.954;2023-04-25T03:43:40;5.20;1.00
6270;DHT22;3168;51.684;6.954;2023-04-25T03:46:06;5.20;1.00
6270;DHT22;3168;51.684;6.954;2023-04-25T03:48:33;5.30;1.00
6270;DHT22;3168;51.684;6.954;2023-04-25T03:50:58;5.30;1.00
6270;DHT22;3168;51.684;6.954;2023-04-25T03:53:25;5.40;1.00
6270;DHT22;3168;51.684;6.954;2023-04-25T03:55:50;5.40;1.00
6270;DHT22;3168;51.684;6.954;2023-04-25T03:58:16;5.40;1.00
6270;DHT22;3168;51.684;6.954;2023-04-25T04:00:43;5.40;1.00
6270;DHT22;3168;51.684;6.954;2023-04-25T04:03:08;5.40;1.00
6270;DHT22;3168;51.684;6.954;2023-04-25T04:05:34;5.40;1.00
6270;DHT22;3168;51.684;6.954;2023-04-25T04:08:00;5.30;1.00
6270;DHT22;3168;51.684;6.954;2023-04-25T04:10:26;5.30;1.00
6270;DHT22;3168;51.684;6.954;2023-04-25T04:12:52;5.20;1.00
6270;DHT22;3168;51.684;6.954;2023-04-25T04:15:17;5.00;1.00
6270;DHT22;3168;51.684;6.954;2023-04-25T04:17:43;5.10;2.00
6270;DHT22;3168;51.684;6.954;2023-04-25T04:20:09;5.00;2.60
6270;DHT22;3168;51.684;6.954;2023-04-25T04:22:35;5.10;3.90
6270;DHT22;3168;51.684;6.954;2023-04-25T04:25:01;5.10;6.70
6270;DHT22;3168;51.684;6.954;2023-04-25T04:27:27;5.10;6.80
6270;DHT22;3168;51.684;6.954;2023-04-25T04:29:53;5.10;9.20
6270;DHT22;3168;51.684;6.954;2023-04-25T04:32:19;5.10;7.80
6270;DHT22;3168;51.684;6.954;2023-04-25T04:34:44;5.10;8.80
6270;DHT22;3168;51.684;6.954;2023-04-25T04:37:10;5.10;9.00
6270;DHT22;3168;51.684;6.954;2023-04-25T04:39:37;5.00;9.80
6270;DHT22;3168;51.684;6.954;2023-04-25T04:42:03;5.00;9.40
6270;DHT22;3168;51.684;6.954;2023-04-25T04:44:29;5.00;10.70
6270;DHT22;3168;51.684;6.954;2023-04-25T04:46:54;5.10;13.00
6270;DHT22;3168;51.684;6.954;2023-04-25T04:49:20;5.10;14.70
6270;DHT22;3168;51.684;6.954;2023-04-25T04:51:46;5.20;15.60
6270;DHT22;3168;51.684;6.954;2023-04-25T04:54:12;5.20;15.70
6270;DHT22;3168;51.684;6.954;2023-04-25T04:56:38;5.20;17.00
6270;DHT22;3168;51.684;6.954;2023-04-25T04:59:04;5.30;18.70
6270;DHT22;3168;51.684;6.954;2023-04-25T05:01:29;5.30;18.60
6270;DHT22;3168;51.684;6.954;2023-04-25T05:03:56;5.30;19.50
6270;DHT22;3168;51.684;6.954;2023-04-25T05:06:21;5.40;22.40
6270;DHT22;3168;51.684;6.954;2023-04-25T05:08:47;5.40;22.70
6270;DHT22;3168;51.684;6.954;2023-04-25T05:11:13;5.50;24.70
6270;DHT22;3168;51.684;6.954;2023-04-25T05:13:38;5.50;26.10
6270;DHT22;3168;51.684;6.954;2023-04-25T05:16:04;5.50;26.40
6270;DHT22;3168;51.684;6.954;2023-04-25T05:18:30;5.50;26.60
6270;DHT22;3168;51.684;6.954;2023-04-25T05:20:56;5.60;27.20
6270;DHT22;3168;51.684;6.954;2023-04-25T05:23:22;5.70;29.90
6270;DHT22;3168;51.684;6.954;2023-04-25T05:25:48;5.70;29.90
6270;DHT22;3168;51.684;6.954;2023-04-25T05:28:13;5.70;28.50
6270;DHT22;3168;51.684;6.954;2023-04-25T05:30:39;5.80;29.60
6270;DHT22;3168;51.684;6.954;2023-04-25T05:33:05;5.80;29.60
6270;DHT22;3168;51.684;6.954;2023-04-25T05:35:31;5.80;28.00
6270;DHT22;3168;51.684;6.954;2023-04-25T05:37:57;5.80;26.80
6270;DHT22;3168;51.684;6.954;2023-04-25T05:40:23;5.80;26.60
6270;DHT22;3168;51.684;6.954;2023-04-25T05:42:48;5.80;25.70
6270;DHT22;3168;51.684;6.954;2023-04-25T05:45:14;5.70;24.00
6270;DHT22;3168;51.684;6.954;2023-04-25T05:47:40;5.70;26.20
6270;DHT22;3168;51.684;6.954;2023-04-25T05:50:07;5.90;26.80
6270;DHT22;3168;51.684;6.954;2023-04-25T05:52:33;6.00;28.30
6270;DHT22;3168;51.684;6.954;2023-04-25T05:54:59;6.20;26.50
6270;DHT22;3168;51.684;6.954;2023-04-25T05:57:26;6.40;25.40
6270;DHT22;3168;51.684;6.954;2023-04-25T05:59:51;6.30;15.50
6270;DHT22;3168;51.684;6.954;2023-04-25T06:02:25;6.30;10.20
6270;DHT22;3168;51.684;6.954;2023-04-25T06:04:52;6.20;1.40
6270;DHT22;3168;51.684;6.954;2023-04-25T06:07:18;6.30;1.00
6270;DHT22;3168;51.684;6.954;2023-04-25T06:09:44;6.40;2.10
6270;DHT22;3168;51.684;6.954;2023-04-25T06:12:09;6.40;1.00
6270;DHT22;3168;51.684;6.954;2023-04-25T06:14:36;6.30;1.00
6270;DHT22;3168;51.684;6.954;2023-04-25T06:17:02;6.30;1.00
6270;DHT22;3168;51.684;6.954;2023-04-25T06:19:27;6.10;1.00
6270;DHT22;3168;51.684;6.954;2023-04-25T06:21:53;6.00;1.00
6270;DHT22;3168;51.684;6.954;2023-04-25T06:24:19;5.90;1.00
6270;DHT22;3168;51.684;6.954;2023-04-25T06:26:45;5.80;1.00
6270;DHT22;3168;51.684;6.954;2023-04-25T06:29:11;5.80;1.00
6270;DHT22;3168;51.684;6.954;2023-04-25T06:31:36;5.90;1.00
6270;DHT22;3168;51.684;6.954;2023-04-25T06:34:02;5.90;1.00
6270;DHT22;3168;51.684;6.954;2023-04-25T06:36:28;5.90;1.00
6270;DHT22;3168;51.684;6.954;2023-04-25T06:38:54;6.00;1.00
6270;DHT22;3168;51.684;6.954;2023-04-25T06:41:20;6.00;1.00
6270;DHT22;3168;51.684;6.954;2023-04-25T06:43:46;6.00;1.00
6270;DHT22;3168;51.684;6.954;2023-04-25T06:46:11;6.10;1.00
6270;DHT22;3168;51.684;6.954;2023-04-25T06:48:37;6.20;1.00
6270;DHT22;3168;51.684;6.954;2023-04-25T06:51:03;6.20;1.00
6270;DHT22;3168;51.684;6.954;2023-04-25T06:53:29;6.40;1.00
6270;DHT22;3168;51.684;6.954;2023-04-25T06:55:56;6.80;1.00
6270;DHT22;3168;51.684;6.954;2023-04-25T06:58:22;6.80;1.00
6270;DHT22;3168;51.684;6.954;2023-04-25T07:00:48;6.80;1.00
6270;DHT22;3168;51.684;6.954;2023-04-25T07:03:14;6.80;1.00
6270;DHT22;3168;51.684;6.954;2023-04-25T07:05:40;7.00;1.00
6270;DHT22;3168;51.684;6.954;2023-04-25T07:08:05;7.10;1.00
6270;DHT22;3168;51.684;6.954;2023-04-25T07:10:31;6.90;1.00
6270;DHT22;3168;51.684;6.954;2023-04-25T07:12:57;7.00;1.00
6270;DHT22;3168;51.684;6.954;2023-04-25T07:15:23;7.20;1.00
6270;DHT22;3168;51.684;6.954;2023-04-25T07:17:49;7.30;1.00
6270;DHT22;3168;51.684;6.954;2023-04-25T07:20:15;7.30;1.00
6270;DHT22;3168;51.684;6.954;2023-04-25T07:22:40;7.10;1.00
6270;DHT22;3168;51.684;6.954;2023-04-25T07:25:07;7.00;1.00
6270;DHT22;3168;51.684;6.954;2023-04-25T07:27:33;7.30;1.00
6270;DHT22;3168;51.684;6.954;2023-04-25T07:29:59;7.40;1.00
6270;DHT22;3168;51.684;6.954;2023-04-25T07:32:25;7.70;1.00
6270;DHT22;3168;51.684;6.954;2023-04-25T07:34:50;7.60;1.00
6270;DHT22;3168;51.684;6.954;2023-04-25T07:37:16;7.60;1.00
6270;DHT22;3168;51.684;6.954;2023-04-25T07:39:42;7.80;1.00
6270;DHT22;3168;51.684;6.954;2023-04-25T07:42:08;7.80;1.00
6270;DHT22;3168;51.684;6.954;2023-04-25T07:44:34;7.50;1.00
6270;DHT22;3168;51.684;6.954;2023-04-25T07:46:59;7.30;1.00
6270;DHT22;3168;51.684;6.954;2023-04-25T07:49:25;7.40;1.00
6270;DHT22;3168;51.684;6.954;2023-04-25T07:51:51;7.90;1.00
6270;DHT22;3168;51.684;6.954;2023-04-25T07:54:17;7.90;1.00
6270;DHT22;3168;51.684;6.954;2023-04-25T07:56:43;7.90;1.00
6270;DHT22;3168;51.684;6.954;2023-04-25T07:59:08;8.00;1.00
6270;DHT22;3168;51.684;6.954;2023-04-25T08:01:34;8.00;1.00
6270;DHT22;3168;51.684;6.954;2023-04-25T08:04:00;8.10;1.00
6270;DHT22;3168;51.684;6.954;2023-04-25T08:06:26;7.90;1.00
6270;DHT22;3168;51.684;6.954;2023-04-25T08:08:52;8.20;1.00
6270;DHT22;3168;51.684;6.954;2023-04-25T08:11:17;8.20;1.00
6270;DHT22;3168;51.684;6.954;2023-04-25T08:13:43;8.10;1.00
6270;DHT22;3168;51.684;6.954;2023-04-25T08:16:09;8.00;1.00
6270;DHT22;3168;51.684;6.954;2023-04-25T08:18:35;8.30;1.00
6270;DHT22;3168;51.684;6.954;2023-04-25T08:21:01;8.20;1.00
6270;DHT22;3168;51.684;6.954;2023-04-25T08:23:26;8.40;1.00
6270;DHT22;3168;51.684;6.954;2023-04-25T08:25:52;8.20;1.00
6270;DHT22;3168;51.684;6.954;2023-04-25T08:28:18;8.60;1.00
6270;DHT22;3168;51.684;6.954;2023-04-25T08:30:45;8.50;1.00
6270;DHT22;3168;51.684;6.954;2023-04-25T08:33:10;8.50;1.00
6270;DHT22;3168;51.684;6.954;2023-04-25T08:35:36;8.60;1.00
6270;DHT22;3168;51.684;6.954;2023-04-25T08:38:02;8.60;1.00
6270;DHT22;3168;51.684;6.954;2023-04-25T08:40:28;9.00;1.00
6270;DHT22;3168;51.684;6.954;2023-04-25T08:42:54;9.00;1.00
6270;DHT22;3168;51.684;6.954;2023-04-25T08:45:20;9.10;1.00
6270;DHT22;3168;51.684;6.954;2023-04-25T08:47:46;8.90;1.00
6270;DHT22;3168;51.684;6.954;2023-04-25T08:50:12;8.80;1.00
6270;DHT22;3168;51.684;6.954;2023-04-25T08:52:39;8.60;1.00
6270;DHT22;3168;51.684;6.954;2023-04-25T08:55:04;8.80;1.00
6270;DHT22;3168;51.684;6.954;2023-04-25T08:57:30;9.00;1.00
6270;DHT22;3168;51.684;6.954;2023-04-25T08:59:56;9.50;1.00
6270;DHT22;3168;51.684;6.954;2023-04-25T09:02:22;9.50;1.00
6270;DHT22;3168;51.684;6.954;2023-04-25T09:04:48;9.40;1.00
6270;DHT22;3168;51.684;6.954;2023-04-25T09:07:14;9.20;1.00
6270;DHT22;3168;51.684;6.954;2023-04-25T09:09:40;9.20;1.00
6270;DHT22;3168;51.684;6.954;2023-04-25T09:12:06;9.10;1.00
6270;DHT22;3168;51.684;6.954;2023-04-25T09:14:33;9.50;1.00
6270;DHT22;3168;51.684;6.954;2023-04-25T09:17:00;9.40;1.00
6270;DHT22;3168;51.684;6.954;2023-04-25T09:19:26;9.70;1.00
6270;DHT22;3168;51.684;6.954;2023-04-25T09:21:54;9.60;1.00
6270;DHT22;3168;51.684;6.954;2023-04-25T09:24:31;9.10;1.00
6270;DHT22;3168;51.684;6.954;2023-04-25T09:26:55;9.10;1.00
6270;DHT22;3168;51.684;6.954;2023-04-25T09:29:24;9.50;1.00
6270;DHT22;3168;51.684;6.954;2023-04-25T09:31:47;9.30;1.00
6270;DHT22;3168;51.684;6.954;2023-04-25T09:34:13;9.60;1.00
6270;DHT22;3168;51.684;6.954;2023-04-25T09:36:39;9.90;1.00
6270;DHT22;3168;51.684;6.954;2023-04-25T09:39:05;9.70;1.00
6270;DHT22;3168;51.684;6.954;2023-04-25T09:41:30;9.70;1.00
6270;DHT22;3168;51.684;6.954;2023-04-25T09:43:57;9.40;1.00
6270;DHT22;3168;51.684;6.954;2023-04-25T09:46:23;9.70;1.00
6270;DHT22;3168;51.684;6.954;2023-04-25T09:48:49;9.70;1.00
6270;DHT22;3168;51.684;6.954;2023-04-25T09:51:14;9.50;1.00
6270;DHT22;3168;51.684;6.954;2023-04-25T09:53:40;9.40;1.00
6270;DHT22;3168;51.684;6.954;2023-04-25T09:56:06;9.20;1.00
6270;DHT22;3168;51.684;6.954;2023-04-25T09:58:34;9.40;1.00
6270;DHT22;3168;51.684;6.954;2023-04-25T10:01:01;9.40;1.00
6270;DHT22;3168;51.684;6.954;2023-04-25T10:03:27;9.10;1.00
6270;DHT22;3168;51.684;6.954;2023-04-25T10:05:52;9.00;1.00
6270;DHT22;3168;51.684;6.954;2023-04-25T10:08:17;9.00;1.00
6270;DHT22;3168;51.684;6.954;2023-04-25T10:10:44;8.50;1.00
6270;DHT22;3168;51.684;6.954;2023-04-25T10:13:11;8.50;1.00
6270;DHT22;3168;51.684;6.954;2023-04-25T10:15:38;8.40;1.00
6270;DHT22;3168;51.684;6.954;2023-04-25T10:18:03;8.30;1.00
6270;DHT22;3168;51.684;6.954;2023-04-25T10:20:30;8.10;1.00
6270;DHT22;3168;51.684;6.954;2023-04-25T10:22:57;7.60;1.00
6270;DHT22;3168;51.684;6.954;2023-04-25T10:25:22;7.30;1.00
6270;DHT22;3168;51.684;6.954;2023-04-25T10:27:50;7.10;1.00
6270;DHT22;3168;51.684;6.954;2023-04-25T10:30:14;7.20;1.00
6270;DHT22;3168;51.684;6.954;2023-04-25T10:32:41;7.40;1.00
6270;DHT22;3168;51.684;6.954;2023-04-25T10:35:19;7.70;1.00
6270;DHT22;3168;51.684;6.954;2023-04-25T10:40:22;7.90;1.00
6270;DHT22;3168;51.684;6.954;2023-04-25T10:42:48;8.10;1.00
6270;DHT22;3168;51.684;6.954;2023-04-25T10:45:14;8.20;1.00
6270;DHT22;3168;51.684;6.954;2023-04-25T10:47:43;8.30;1.00
6270;DHT22;3168;51.684;6.954;2023-04-25T10:50:09;8.50;1.00
6270;DHT22;3168;51.684;6.954;2023-04-25T10:52:36;8.80;1.00
6270;DHT22;3168;51.684;6.954;2023-04-25T10:55:03;8.90;1.00
6270;DHT22;3168;51.684;6.954;2023-04-25T10:57:40;8.90;1.00
6270;DHT22;3168;51.684;6.954;2023-04-25T11:00:10;9.00;1.00
6270;DHT22;3168;51.684;6.954;2023-04-25T11:02:40;9.00;1.00
6270;DHT22;3168;51.684;6.954;2023-04-25T11:05:04;8.80;1.00
6270;DHT22;3168;51.684;6.954;2023-04-25T11:07:37;8.80;1.00
6270;DHT22;3168;51.684;6.954;2023-04-25T11:10:00;9.00;1.00
6270;DHT22;3168;51.684;6.954;2023-04-25T11:12:25;9.30;1.00
6270;DHT22;3168;51.684;6.954;2023-04-25T11:14:57;9.50;1.00
6270;DHT22;3168;51.684;6.954;2023-04-25T11:17:17;9.40;1.00
6270;DHT22;3168;51.684;6.954;2023-04-25T11:19:44;10.00;1.00
6270;DHT22;3168;51.684;6.954;2023-04-25T11:22:09;10.00;1.00
6270;DHT22;3168;51.684;6.954;2023-04-25T11:24:35;10.20;1.00
6270;DHT22;3168;51.684;6.954;2023-04-25T11:27:01;10.40;1.00
6270;DHT22;3168;51.684;6.954;2023-04-25T11:29:28;10.50;1.00
6270;DHT22;3168;51.684;6.954;2023-04-25T11:31:54;10.40;1.00
6270;DHT22;3168;51.684;6.954;2023-04-25T11:34:19;10.80;1.00
6270;DHT22;3168;51.684;6.954;2023-04-25T11:36:45;10.80;1.00
6270;DHT22;3168;51.684;6.954;2023-04-25T11:39:11;10.60;1.00
6270;DHT22;3168;51.684;6.954;2023-04-25T11:41:38;10.40;1.00
6270;DHT22;3168;51.684;6.954;2023-04-25T11:44:04;10.30;1.00
6270;DHT22;3168;51.684;6.954;2023-04-25T11:46:30;10.40;1.00
6270;DHT22;3168;51.684;6.954;2023-04-25T11:48:56;10.50;1.00
6270;DHT22;3168;51.684;6.954;2023-04-25T11:51:22;10.50;1.00
6270;DHT22;3168;51.684;6.954;2023-04-25T11:53:48;10.70;1.00
6270;DHT22;3168;51.684;6.954;2023-04-25T11:56:14;10.60;1.00
6270;DHT22;3168;51.684;6.954;2023-04-25T12:01:26;10.90;1.00
6270;DHT22;3168;51.684;6.954;2023-04-25T12:03:50;10.30;1.00
6270;DHT22;3168;51.684;6.954;2023-04-25T12:06:16;10.30;1.00
6270;DHT22;3168;51.684;6.954;2023-04-25T12:08:58;10.20;1.00
6270;DHT22;3168;51.684;6.954;2023-04-25T12:11:19;9.80;1.00
6270;DHT22;3168;51.684;6.954;2023-04-25T12:13:34;10.10;1.00
6270;DHT22;3168;51.684;6.954;2023-04-25T12:16:00;10.30;1.00
6270;DHT22;3168;51.684;6.954;2023-04-25T12:18:26;10.70;1.00
6270;DHT22;3168;51.684;6.954;2023-04-25T12:20:53;10.60;1.00
6270;DHT22;3168;51.684;6.954;2023-04-25T12:23:24;10.30;1.00
6270;DHT22;3168;51.684;6.954;2023-04-25T12:25:44;10.50;1.00
6270;DHT22;3168;51.684;6.954;2023-04-25T12:28:16;10.40;1.00
6270;DHT22;3168;51.684;6.954;2023-04-25T12:33:19;10.40;1.00
6270;DHT22;3168;51.684;6.954;2023-04-25T12:35:44;10.70;1.00
6270;DHT22;3168;51.684;6.954;2023-04-25T12:38:10;10.90;1.00
6270;DHT22;3168;51.684;6.954;2023-04-25T12:40:36;11.10;1.00
6270;DHT22;3168;51.684;6.954;2023-04-25T12:43:02;11.10;1.00
6270;DHT22;3168;51.684;6.954;2023-04-25T12:45:28;11.30;1.00
6270;DHT22;3168;51.684;6.954;2023-04-25T12:47:54;11.00;1.00
6270;DHT22;3168;51.684;6.954;2023-04-25T12:50:21;10.60;1.00
6270;DHT22;3168;51.684;6.954;2023-04-25T12:52:47;10.20;1.00
6270;DHT22;3168;51.684;6.954;2023-04-25T12:55:13;10.30;1.00
6270;DHT22;3168;51.684;6.954;2023-04-25T12:57:39;10.50;1.00
6270;DHT22;3168;51.684;6.954;2023-04-25T13:00:06;10.70;1.00
6270;DHT22;3168;51.684;6.954;2023-04-25T13:02:32;11.00;1.00
6270;DHT22;3168;51.684;6.954;2023-04-25T13:04:57;11.30;1.00
6270;DHT22;3168;51.684;6.954;2023-04-25T13:07:24;11.70;1.00
6270;DHT22;3168;51.684;6.954;2023-04-25T13:09:51;11.70;1.00
6270;DHT22;3168;51.684;6.954;2023-04-25T13:12:17;11.50;1.00
6270;DHT22;3168;51.684;6.954;2023-04-25T13:14:43;11.60;1.00
6270;DHT22;3168;51.684;6.954;2023-04-25T13:17:08;11.40;1.00
6270;DHT22;3168;51.684;6.954;2023-04-25T13:19:34;11.10;1.00
6270;DHT22;3168;51.684;6.954;2023-04-25T13:22:00;11.60;1.00
6270;DHT22;3168;51.684;6.954;2023-04-25T13:24:26;11.40;1.00
6270;DHT22;3168;51.684;6.954;2023-04-25T13:26:52;11.30;1.00
6270;DHT22;3168;51.684;6.954;2023-04-25T13:29:17;11.20;1.00
6270;DHT22;3168;51.684;6.954;2023-04-25T13:31:43;11.20;1.00
6270;DHT22;3168;51.684;6.954;2023-04-25T13:34:09;11.50;1.00
6270;DHT22;3168;51.684;6.954;2023-04-25T13:36:35;11.30;1.00
6270;DHT22;3168;51.684;6.954;2023-04-25T13:39:01;11.50;1.00
6270;DHT22;3168;51.684;6.954;2023-04-25T13:41:26;11.70;1.00
6270;DHT22;3168;51.684;6.954;2023-04-25T13:43:52;11.50;1.00
6270;DHT22;3168;51.684;6.954;2023-04-25T13:46:18;11.80;1.00
6270;DHT22;3168;51.684;6.954;2023-04-25T13:48:44;11.70;1.00
6270;DHT22;3168;51.684;6.954;2023-04-25T13:51:10;11.40;1.00
6270;DHT22;3168;51.684;6.954;2023-04-25T13:53:36;11.60;1.00
6270;DHT22;3168;51.684;6.954;2023-04-25T13:56:01;12.10;1.00
6270;DHT22;3168;51.684;6.954;2023-04-25T13:58:27;11.70;1.00
6270;DHT22;3168;51.684;6.954;2023-04-25T14:00:53;11.60;1.00
6270;DHT22;3168;51.684;6.954;2023-04-25T14:03:19;11.90;1.00
6270;DHT22;3168;51.684;6.954;2023-04-25T14:05:45;11.90;1.00
6270;DHT22;3168;51.684;6.954;2023-04-25T14:08:10;11.90;1.00
6270;DHT22;3168;51.684;6.954;2023-04-25T14:10:37;11.60;1.00
6270;DHT22;3168;51.684;6.954;2023-04-25T14:13:03;11.50;1.00
6270;DHT22;3168;51.684;6.954;2023-04-25T14:15:29;11.50;1.00
6270;DHT22;3168;51.684;6.954;2023-04-25T14:17:54;11.30;1.00
6270;DHT22;3168;51.684;6.954;2023-04-25T14:20:20;11.10;1.00
6270;DHT22;3168;51.684;6.954;2023-04-25T14:22:46;11.00;1.00
6270;DHT22;3168;51.684;6.954;2023-04-25T14:25:12;10.70;1.00
6270;DHT22;3168;51.684;6.954;2023-04-25T14:27:39;10.40;1.00
6270;DHT22;3168;51.684;6.954;2023-04-25T14:30:05;10.40;1.00
6270;DHT22;3168;51.684;6.954;2023-04-25T14:32:31;10.40;1.00
6270;DHT22;3168;51.684;6.954;2023-04-25T14:34:57;10.10;1.00
6270;DHT22;3168;51.684;6.954;2023-04-25T14:37:23;10.00;1.00
6270;DHT22;3168;51.684;6.954;2023-04-25T14:39:49;9.80;1.00
6270;DHT22;3168;51.684;6.954;2023-04-25T14:42:15;9.50;1.00
6270;DHT22;3168;51.684;6.954;2023-04-25T14:44:40;9.40;1.00
6270;DHT22;3168;51.684;6.954;2023-04-25T14:47:06;9.10;1.00
6270;DHT22;3168;51.684;6.954;2023-04-25T14:49:32;9.50;1.00
6270;DHT22;3168;51.684;6.954;2023-04-25T14:51:58;10.20;1.00
6270;DHT22;3168;51.684;6.954;2023-04-25T14:54:25;12.10;1.00
6270;DHT22;3168;51.684;6.954;2023-04-25T14:56:50;12.10;1.00
6270;DHT22;3168;51.684;6.954;2023-04-25T14:59:16;13.60;1.00
6270;DHT22;3168;51.684;6.954;2023-04-25T15:01:42;14.40;1.00
6270;DHT22;3168;51.684;6.954;2023-04-25T15:04:08;13.90;1.00
6270;DHT22;3168;51.684;6.954;2023-04-25T15:06:34;14.10;1.00
6270;DHT22;3168;51.684;6.954;2023-04-25T15:08:59;14.10;1.00
6270;DHT22;3168;51.684;6.954;2023-04-25T15:11:25;14.70;1.00
6270;DHT22;3168;51.684;6.954;2023-04-25T15:13:51;14.70;1.00
6270;DHT22;3168;51.684;6.954;2023-04-25T15:16:17;13.50;1.00
6270;DHT22;3168;51.684;6.954;2023-04-25T15:18:43;14.20;1.00
6270;DHT22;3168;51.684;6.954;2023-04-25T15:21:09;14.90;1.00
6270;DHT22;3168;51.684;6.954;2023-04-25T15:23:38;14.20;1.00
6270;DHT22;3168;51.684;6.954;2023-04-25T15:26:04;14.20;1.00
6270;DHT22;3168;51.684;6.954;2023-04-25T15:28:29;13.30;1.00
6270;DHT22;3168;51.684;6.954;2023-04-25T15:30:55;12.20;1.00
6270;DHT22;3168;51.684;6.954;2023-04-25T15:33:21;11.30;1.00
6270;DHT22;3168;51.684;6.954;2023-04-25T15:35:47;11.10;1.00
6270;DHT22;3168;51.684;6.954;2023-04-25T15:38:13;10.80;1.00
6270;DHT22;3168;51.684;6.954;2023-04-25T15:40:39;10.70;1.00
6270;DHT22;3168;51.684;6.954;2023-04-25T15:43:05;10.60;1.00
6270;DHT22;3168;51.684;6.954;2023-04-25T15:45:30;11.20;1.00
6270;DHT22;3168;51.684;6.954;2023-04-25T15:47:56;11.50;1.00
6270;DHT22;3168;51.684;6.954;2023-04-25T15:50:22;12.50;1.00
6270;DHT22;3168;51.684;6.954;2023-04-25T15:52:48;12.90;1.00
6270;DHT22;3168;51.684;6.954;2023-04-25T15:55:14;13.10;1.00
6270;DHT22;3168;51.684;6.954;2023-04-25T15:57:39;13.10;1.00
6270;DHT22;3168;51.684;6.954;2023-04-25T16:00:07;12.80;1.00
6270;DHT22;3168;51.684;6.954;2023-04-25T16:02:33;13.20;1.00
6270;DHT22;3168;51.684;6.954;2023-04-25T16:04:59;13.50;1.00
6270;DHT22;3168;51.684;6.954;2023-04-25T16:07:25;13.50;1.00
6270;DHT22;3168;51.684;6.954;2023-04-25T16:09:50;13.30;1.00
6270;DHT22;3168;51.684;6.954;2023-04-25T16:12:16;12.60;1.00
6270;DHT22;3168;51.684;6.954;2023-04-25T16:14:43;12.30;1.00
6270;DHT22;3168;51.684;6.954;2023-04-25T16:17:08;12.30;1.00
6270;DHT22;3168;51.684;6.954;2023-04-25T16:19:34;12.50;1.00
6270;DHT22;3168;51.684;6.954;2023-04-25T16:22:00;12.60;1.00
6270;DHT22;3168;51.684;6.954;2023-04-25T16:24:26;12.50;1.00
6270;DHT22;3168;51.684;6.954;2023-04-25T16:26:52;12.10;1.00
6270;DHT22;3168;51.684;6.954;2023-04-25T16:29:18;12.30;1.00